Time;durP1;ratioP1;P1;durP2;ratioP2;P2;SDS_P1;SDS_P2;PMS_P1;PMS_P2;Temp;Humidity;BMP_temperature;BMP_pressure;BME280_temperature;BME280_humidity;BME280_pressure;Samples;Min_cycle;Max_cycle;Signal;HPM_P1;HPM_P2
2022/03/23 00:02:01;;;;;;;2.30;0.98;;;;;;;21.48;58.80;101788.81;4914848;29;20762;-75
2022/03/23 00:04:31;;;;;;;1.80;1.20;;;;;;;21.50;59.25;101791.47;4914206;28;20116;-74
2022/03/23 00:07:00;;;;;;;2.00;1.30;;;;;;;21.49;59.71;101781.81;4914461;29;20059;-74
2022/03/23 00:09:29;;;;;;;1.63;1.13;;;;;;;21.48;58.22;101775.66;4913886;29;20079;-75
2022/03/23 00:11:57;;;;;;;1.95;1.00;;;;;;;21.48;58.56;101773.03;4919265;29;20717;-73
2022/03/23 00:14:26;;;;;;;1.35;1.00;;;;;;;21.47;57.40;101773.91;4922469;29;20048;-75
2022/03/23 00:16:58;;;;;;;1.63;1.20;;;;;;;21.50;57.67;101771.28;4914063;29;20225;-75
2022/03/23 00:19:26;;;;;;;1.85;1.00;;;;;;;21.51;57.86;101764.28;4913932;29;20168;-75
2022/03/23 00:21:55;;;;;;;1.70;1.17;;;;;;;21.46;58.33;101763.38;4914377;29;20148;-76
2022/03/23 00:24:23;;;;;;;1.85;1.60;;;;;;;21.33;58.06;101767.75;4914306;29;20055;-75
2022/03/23 00:26:59;;;;;;;3.65;1.45;;;;;;;21.27;58.54;101762.47;4914661;29;20510;-75
2022/03/23 00:29:28;;;;;;;1.83;1.10;;;;;;;21.26;58.25;101755.44;4912573;29;20135;-74
2022/03/23 00:31:58;;;;;;;1.42;1.00;;;;;;;21.22;58.77;101751.06;4912732;29;20135;-75
2022/03/23 00:34:26;;;;;;;2.33;1.20;;;;;;;21.20;59.57;101740.50;4912183;29;20418;-76
2022/03/23 00:36:54;;;;;;;1.40;1.10;;;;;;;21.23;58.77;101744.91;4913266;29;20565;-76
2022/03/23 00:39:23;;;;;;;1.42;0.90;;;;;;;21.25;58.93;101733.50;4913547;29;20052;-77
2022/03/23 00:41:52;;;;;;;1.40;1.00;;;;;;;21.25;58.56;101722.09;4913569;29;20088;-78
2022/03/23 00:44:21;;;;;;;2.72;1.10;;;;;;;21.17;57.93;101713.31;4914650;29;20058;-78
2022/03/23 00:46:49;;;;;;;1.83;1.20;;;;;;;21.17;58.14;101723.84;4917074;29;20111;-78
2022/03/23 00:49:27;;;;;;;1.70;1.15;;;;;;;21.03;58.56;101722.06;4909812;29;20109;-78
2022/03/23 00:51:56;;;;;;;1.48;1.00;;;;;;;21.05;58.90;101720.31;4904087;29;20052;-77
2022/03/23 00:54:24;;;;;;;2.60;1.00;;;;;;;21.03;58.28;101719.44;4912138;29;20056;-78
2022/03/23 00:56:53;;;;;;;1.33;1.08;;;;;;;20.99;58.06;101714.19;4900699;29;20056;-77
2022/03/23 00:59:22;;;;;;;1.35;1.05;;;;;;;20.96;59.04;101714.16;4914302;29;20140;-77
2022/03/23 01:01:51;;;;;;;1.83;1.27;;;;;;;20.96;58.41;101714.16;4913013;29;20060;-78
2022/03/23 01:04:22;;;;;;;2.65;1.10;;;;;;;20.98;59.01;101718.56;4913134;29;20068;-78
2022/03/23 01:06:52;;;;;;;1.75;1.38;;;;;;;20.95;58.89;101708.00;4913979;29;20498;-77
2022/03/23 01:09:32;;;;;;;4.43;1.25;;;;;;;20.92;59.58;101702.75;4913001;29;20175;-77
2022/03/23 01:12:00;;;;;;;2.15;1.38;;;;;;;20.92;59.80;101708.03;4918163;29;20055;-77
2022/03/23 01:14:29;;;;;;;2.28;1.30;;;;;;;20.90;60.79;101700.13;4919651;29;20486;-78
2022/03/23 01:16:58;;;;;;;2.03;1.30;;;;;;;20.86;61.29;101697.47;4912890;29;20060;-78
2022/03/23 01:19:32;;;;;;;1.35;1.05;;;;;;;20.86;60.26;101700.09;4913424;29;20120;-78
2022/03/23 01:22:01;;;;;;;1.70;1.00;;;;;;;20.84;61.16;101697.47;4915475;29;20044;-77
2022/03/23 01:24:30;;;;;;;1.42;1.00;;;;;;;20.82;60.90;101690.44;4924700;29;20055;-79
2022/03/23 01:26:58;;;;;;;2.92;0.93;;;;;;;20.80;62.32;101689.56;4912962;29;20103;-77
2022/03/23 01:29:28;;;;;;;1.02;0.85;;;;;;;20.78;60.64;101686.94;4912983;29;20506;-77
2022/03/23 01:31:57;;;;;;;4.63;1.05;;;;;;;20.75;60.57;101680.78;4913099;29;20059;-78
2022/03/23 01:34:27;;;;;;;1.17;0.85;;;;;;;20.70;60.99;101676.41;4913236;29;20151;-76
2022/03/23 01:36:55;;;;;;;2.67;0.90;;;;;;;20.68;60.79;101680.81;4911272;29;20083;-76
2022/03/23 01:39:24;;;;;;;1.77;1.02;;;;;;;20.66;62.08;101672.03;4914405;29;20052;-77
2022/03/23 01:41:54;;;;;;;2.10;0.80;;;;;;;20.62;62.01;101672.88;4910228;29;20059;-77
2022/03/23 01:44:24;;;;;;;1.40;0.98;;;;;;;20.59;61.94;101662.38;4911875;29;20146;-77
2022/03/23 01:47:07;;;;;;;1.30;0.80;;;;;;;20.54;61.83;101664.06;4911267;29;20612;-76
2022/03/23 01:49:38;;;;;;;1.77;0.80;;;;;;;20.52;61.79;101663.16;4910748;29;20066;-77
2022/03/23 01:52:09;;;;;;;1.63;0.90;;;;;;;20.48;62.97;101661.44;4911213;29;20052;-78
2022/03/23 01:54:39;;;;;;;1.67;0.90;;;;;;;20.41;63.33;101657.91;4912170;29;20060;-79
2022/03/23 01:57:14;;;;;;;1.77;1.08;;;;;;;20.35;63.21;101657.00;4912692;29;20083;-79
2022/03/23 01:59:43;;;;;;;1.38;0.90;;;;;;;20.30;62.59;101660.47;4911791;29;20052;-76
2022/03/23 02:02:12;;;;;;;0.98;0.70;;;;;;;20.25;62.51;101658.72;4909905;29;20054;-77
2022/03/23 02:04:43;;;;;;;1.10;0.80;;;;;;;20.19;62.33;101649.03;4912481;28;20064;-76
2022/03/23 02:07:14;;;;;;;1.08;0.85;;;;;;;20.15;62.79;101649.91;4912705;29;20052;-77
2022/03/23 02:09:42;;;;;;;1.67;0.80;;;;;;;20.10;62.48;101646.38;4911455;29;20459;-76
2022/03/23 02:12:12;;;;;;;2.15;0.95;;;;;;;20.03;62.61;101634.97;4912113;29;20040;-74
2022/03/23 02:14:41;;;;;;;1.27;0.80;;;;;;;19.96;63.15;101627.94;4912507;29;20139;-75
2022/03/23 02:17:09;;;;;;;2.55;0.80;;;;;;;19.88;63.79;101625.28;4911300;29;20136;-76
2022/03/23 02:19:44;;;;;;;1.20;0.90;;;;;;;19.79;64.05;101619.97;4910977;29;20596;-75
2022/03/23 02:22:15;;;;;;;1.75;1.00;;;;;;;19.72;64.30;101623.41;4898962;29;20084;-76
2022/03/23 02:24:43;;;;;;;1.20;0.82;;;;;;;19.63;64.70;101618.06;4912461;29;20103;-76
2022/03/23 02:27:12;;;;;;;1.58;0.85;;;;;;;19.54;64.95;101624.19;4912880;29;20051;-76
2022/03/23 02:29:44;;;;;;;1.20;0.70;;;;;;;19.46;65.82;101620.59;4911929;29;20060;-75
2022/03/23 02:32:13;;;;;;;4.80;0.90;;;;;;;19.38;66.12;101617.94;4915502;29;20128;-75
2022/03/23 02:34:41;;;;;;;1.40;1.00;;;;;;;19.27;66.50;101614.38;4912658;29;20052;-75
2022/03/23 02:37:10;;;;;;;2.58;1.00;;;;;;;19.18;66.97;101609.06;4912476;29;20455;-76
2022/03/23 02:39:40;;;;;;;3.10;1.13;;;;;;;19.08;67.41;101607.19;4911472;29;20071;-76
2022/03/23 02:42:12;;;;;;;3.40;1.17;;;;;;;19.01;68.28;101606.28;4912157;29;20084;-76
2022/03/23 02:44:40;;;;;;;3.55;1.20;;;;;;;18.91;68.65;101600.06;4911888;29;20279;-76
2022/03/23 02:47:09;;;;;;;1.55;1.00;;;;;;;18.79;69.02;101600.84;4925229;29;20095;-77
2022/03/23 02:49:39;;;;;;;2.35;0.98;;;;;;;18.70;69.57;101605.09;4910927;29;20075;-76
2022/03/23 02:52:12;;;;;;;1.83;1.00;;;;;;;18.60;70.09;101599.78;4911470;29;20052;-76
2022/03/23 03:04:01;;;;;;;;;;;;;;;;;;;;;
2022/03/23 03:06:30;;;;;;;2.25;1.00;;;;;;;18.13;74.97;101589.66;4916011;29;20056;-79
2022/03/23 03:08:58;;;;;;;3.17;1.20;;;;;;;18.08;75.33;101588.72;4924047;29;20543;-79
2022/03/23 03:11:28;;;;;;;1.48;0.90;;;;;;;18.01;75.93;101592.13;4912021;29;20103;-78
2022/03/23 03:13:59;;;;;;;3.83;1.08;;;;;;;17.93;76.47;101594.63;4930582;29;20062;-77
2022/03/23 03:16:28;;;;;;;2.47;1.10;;;;;;;17.86;76.83;101597.16;4916483;29;20052;-77
2022/03/23 03:18:56;;;;;;;3.45;1.20;;;;;;;17.79;77.26;101591.81;4910459;29;20056;-78
2022/03/23 03:21:25;;;;;;;3.40;1.30;;;;;;;17.73;77.48;101591.75;4911257;29;20048;-78
2022/03/23 03:23:53;;;;;;;3.30;1.30;;;;;;;17.66;77.11;101596.84;4910749;29;20052;-77
2022/03/23 03:26:25;;;;;;;2.47;1.30;;;;;;;17.56;77.69;101582.78;4914552;29;20060;-78
2022/03/23 03:28:55;;;;;;;2.58;1.20;;;;;;;17.42;78.06;101574.72;4915155;29;20421;-77
2022/03/23 03:31:23;;;;;;;2.65;1.17;;;;;;;17.43;78.37;101581.75;4915610;29;20120;-78
2022/03/23 03:33:52;;;;;;;4.88;1.20;;;;;;;17.35;78.77;101579.00;4915342;29;20052;-79
2022/03/23 03:36:20;;;;;;;3.05;1.23;;;;;;;17.27;80.10;101582.34;4914698;29;20134;-78
2022/03/23 03:38:49;;;;;;;4.00;1.00;;;;;;;17.10;79.87;101572.50;4915549;29;20056;-79
2022/03/23 03:41:18;;;;;;;1.67;1.10;;;;;;;17.08;80.55;101579.44;4915107;29;20052;-79
2022/03/23 03:43:46;;;;;;;3.40;1.15;;;;;;;17.03;81.29;101578.50;4914106;29;20151;-77
2022/03/23 03:46:16;;;;;;;1.02;0.90;;;;;;;16.95;81.15;101575.78;4915094;29;20051;-77
2022/03/23 03:48:45;;;;;;;2.45;1.27;;;;;;;16.89;81.02;101575.66;4914580;29;20084;-77
2022/03/23 03:51:13;;;;;;;2.35;1.33;;;;;;;16.82;81.01;101571.19;4915346;29;20454;-76
2022/03/23 03:53:42;;;;;;;1.67;1.20;;;;;;;16.73;81.87;101571.88;4914764;29;20150;-76
2022/03/23 03:56:11;;;;;;;2.80;1.65;;;;;;;16.66;82.06;101570.00;4915107;29;20052;-76
2022/03/23 03:58:41;;;;;;;4.07;1.50;;;;;;;16.60;82.38;101569.03;4914662;29;20087;-78
2022/03/23 04:01:14;;;;;;;3.72;1.55;;;;;;;16.52;82.77;101566.28;4914979;29;20048;-76
2022/03/23 04:03:44;;;;;;;2.67;1.60;;;;;;;16.45;83.48;101564.41;4913862;29;20136;-76
2022/03/23 04:06:12;;;;;;;3.15;2.03;;;;;;;16.40;83.62;101573.88;4913830;29;20526;-78
2022/03/23 04:08:41;;;;;;;3.53;2.10;;;;;;;16.34;84.48;101574.66;4913396;29;20060;-77
2022/03/23 04:11:09;;;;;;;3.60;2.03;;;;;;;16.29;84.78;101571.09;4913445;29;20131;-77
2022/03/23 04:13:38;;;;;;;2.67;1.52;;;;;;;16.23;84.12;101564.00;4927546;29;20059;-79
2022/03/23 04:16:07;;;;;;;4.57;2.25;;;;;;;16.17;85.27;101569.13;4913035;29;20570;-78
2022/03/23 04:18:35;;;;;;;3.22;1.67;;;;;;;16.13;85.78;101565.56;4914275;29;20174;-79
2022/03/23 04:21:05;;;;;;;2.53;1.50;;;;;;;16.06;86.57;101571.50;4916910;29;20119;-81
2022/03/23 04:23:34;;;;;;;4.13;1.92;;;;;;;16.00;86.28;101576.59;4913963;29;20576;-78
2022/03/23 04:26:03;;;;;;;5.10;2.10;;;;;;;15.94;86.74;101576.47;4914015;29;20518;-82
2022/03/23 04:28:32;;;;;;;9.68;3.42;;;;;;;15.89;86.63;101578.97;4914503;29;20056;-80
2022/03/23 04:31:01;;;;;;;6.00;3.10;;;;;;;15.81;87.78;101577.94;4915011;29;20064;-79
2022/03/23 04:33:29;;;;;;;7.90;2.70;;;;;;;15.77;88.50;101577.84;4925307;29;20056;-78
2022/03/23 04:35:57;;;;;;;4.70;2.08;;;;;;;15.72;89.67;101579.50;4914117;29;20079;-81
2022/03/23 04:38:28;;;;;;;5.88;2.25;;;;;;;15.66;89.92;101569.75;4913955;29;20115;-81
2022/03/23 04:40:56;;;;;;;12.93;4.80;;;;;;;15.62;90.44;101576.66;4913931;29;20117;-79
2022/03/23 04:43:25;;;;;;;5.88;2.97;;;;;;;15.56;91.14;101579.13;4913796;29;20051;-77
2022/03/23 04:45:53;;;;;;;3.92;2.53;;;;;;;15.50;92.30;101574.63;4912957;29;20123;-78
2022/03/23 04:48:22;;;;;;;4.82;2.22;;;;;;;15.48;92.98;101578.03;4908207;29;20052;-77
2022/03/23 04:50:50;;;;;;;4.63;2.70;;;;;;;15.44;93.53;101568.41;4900269;29;20056;-81
2022/03/23 04:53:20;;;;;;;5.28;2.60;;;;;;;15.40;93.01;101574.41;4914156;29;20056;-81
2022/03/23 04:55:50;;;;;;;2.92;1.83;;;;;;;15.34;93.51;101571.66;4913184;29;20056;-79
2022/03/23 04:58:19;;;;;;;7.40;3.15;;;;;;;15.27;91.91;101568.00;4913478;29;20135;-80
2022/03/23 05:00:47;;;;;;;6.85;3.17;;;;;;;15.16;90.56;101570.34;4913498;29;20048;-79
2022/03/23 05:03:15;;;;;;;3.47;1.85;;;;;;;15.14;93.04;101581.59;4913907;29;20052;-78
2022/03/23 05:05:44;;;;;;;4.28;2.38;;;;;;;15.09;93.04;101578.88;4914291;28;20131;-77
2022/03/23 05:08:13;;;;;;;2.10;1.65;;;;;;;15.04;93.81;101572.69;4912063;29;20521;-77
2022/03/23 05:10:42;;;;;;;4.78;1.70;;;;;;;14.98;95.61;101567.31;4906915;29;20056;-77
2022/03/23 05:13:12;;;;;;;2.42;1.15;;;;;;;14.93;99.81;101568.94;4924887;29;20113;-78
2022/03/23 05:15:40;;;;;;;2.38;1.40;;;;;;;14.88;96.67;101566.22;4917183;29;20135;-79
2022/03/23 05:18:09;;;;;;;3.53;1.27;;;;;;;14.83;98.02;101562.63;4913692;29;20048;-79
2022/03/23 05:20:38;;;;;;;2.53;1.27;;;;;;;14.78;97.16;101562.50;4913683;29;20530;-79
2022/03/23 05:23:07;;;;;;;3.78;1.67;;;;;;;14.71;98.23;101563.19;4912598;29;20064;-80
2022/03/23 05:25:35;;;;;;;3.20;1.30;;;;;;;14.65;98.25;101550.00;4913014;29;20052;-80
2022/03/23 05:28:04;;;;;;;4.13;1.70;;;;;;;14.61;99.37;101545.56;4910666;29;20048;-80
2022/03/23 05:30:34;;;;;;;4.22;1.92;;;;;;;14.58;100.00;101548.09;4901063;29;20088;-78
2022/03/23 05:33:03;;;;;;;8.90;2.13;;;;;;;14.56;100.00;101547.16;4912781;29;20048;-80
2022/03/23 05:35:31;;;;;;;2.40;1.50;;;;;;;14.52;100.00;101537.47;4912774;29;20059;-81
2022/03/23 05:37:59;;;;;;;4.47;1.58;;;;;;;14.47;100.00;101534.75;4913312;29;20048;-80
2022/03/23 05:40:28;;;;;;;2.55;1.35;;;;;;;14.44;100.00;101527.75;4912893;29;20056;-77
2022/03/23 05:42:56;;;;;;;2.83;1.35;;;;;;;14.42;100.00;101526.81;4912176;29;20052;-77
2022/03/23 05:45:25;;;;;;;3.53;1.65;;;;;;;14.40;100.00;101523.28;4912456;29;20056;-77
2022/03/23 05:47:56;;;;;;;4.88;1.30;;;;;;;14.34;100.00;101515.34;4912930;29;20048;-77
2022/03/23 05:50:25;;;;;;;2.47;1.40;;;;;;;14.31;100.00;101522.19;4911756;29;20502;-77
2022/03/23 05:52:53;;;;;;;2.75;1.50;;;;;;;14.24;100.00;101526.34;4912118;29;20048;-75
2022/03/23 05:55:22;;;;;;;3.53;1.20;;;;;;;14.18;100.00;101521.00;4912251;29;20103;-77
2022/03/23 05:57:50;;;;;;;1.08;0.88;;;;;;;14.14;100.00;101511.31;4912145;29;20087;-77
2022/03/23 06:00:19;;;;;;;3.17;1.10;;;;;;;14.10;100.00;101519.88;4912143;29;20120;-77
2022/03/23 06:02:48;;;;;;;3.92;1.13;;;;;;;14.08;100.00;101516.34;4911983;29;20646;-76
2022/03/23 06:05:25;;;;;;;1.55;0.88;;;;;;;14.06;100.00;101518.91;4913818;28;20525;-77
2022/03/23 06:08:01;;;;;;;3.35;0.90;;;;;;;14.05;100.00;101519.75;4912586;29;20056;-76
2022/03/23 06:10:29;;;;;;;1.23;0.80;;;;;;;14.02;100.00;101517.97;4915644;29;20052;-77
2022/03/23 06:12:57;;;;;;;1.65;0.90;;;;;;;14.01;100.00;101521.38;4924806;29;20087;-76
2022/03/23 06:15:26;;;;;;;2.38;1.20;;;;;;;13.99;100.00;101523.06;4914473;29;20131;-77
2022/03/23 06:17:55;;;;;;;2.38;1.05;;;;;;;13.97;100.00;101529.97;4922962;29;20060;-76
2022/03/23 06:20:25;;;;;;;1.85;1.17;;;;;;;13.94;100.00;101534.19;4911558;29;20052;-77
2022/03/23 06:22:53;;;;;;;2.10;1.10;;;;;;;13.83;100.00;101515.66;4911960;29;20079;-76
2022/03/23 06:25:24;;;;;;;2.90;1.20;;;;;;;13.87;100.00;101525.31;4911854;29;20100;-77
2022/03/23 06:27:53;;;;;;;5.47;1.13;;;;;;;13.82;100.00;101529.53;4925079;29;20079;-77
2022/03/23 06:30:21;;;;;;;1.75;0.90;;;;;;;13.76;100.00;101521.53;4912068;29;20051;-76
2022/03/23 06:32:50;;;;;;;2.72;0.95;;;;;;;13.68;100.00;101520.44;4911459;29;20048;-75
2022/03/23 06:35:18;;;;;;;2.80;1.00;;;;;;;13.60;100.00;101528.00;4911627;29;20127;-76
2022/03/23 06:37:49;;;;;;;3.85;1.30;;;;;;;13.53;100.00;101526.94;4912003;29;20134;-76
2022/03/23 06:40:18;;;;;;;1.55;0.90;;;;;;;13.49;100.00;101527.72;4911591;29;20055;-74
2022/03/23 06:42:47;;;;;;;3.10;1.35;;;;;;;13.49;100.00;101524.22;4911906;29;20514;-75
2022/03/23 06:45:15;;;;;;;2.35;1.13;;;;;;;13.45;100.00;101522.38;4911923;29;20056;-76
2022/03/23 06:47:44;;;;;;;1.77;0.95;;;;;;;13.42;100.00;101520.53;4911456;29;20124;-76
2022/03/23 06:50:12;;;;;;;2.83;0.88;;;;;;;13.40;100.00;101519.63;4911602;29;20074;-75
2022/03/23 06:52:41;;;;;;;2.38;0.98;;;;;;;13.36;100.00;101517.78;4911357;29;20150;-75
2022/03/23 06:55:11;;;;;;;1.58;1.10;;;;;;;13.34;100.00;101509.03;4915449;29;20115;-75
2022/03/23 06:57:40;;;;;;;1.85;1.00;;;;;;;13.30;100.00;101502.84;4920314;29;20135;-75
2022/03/23 07:00:14;;;;;;;2.42;0.90;;;;;;;13.27;100.00;101514.88;4911914;29;20760;-75
2022/03/23 07:02:43;;;;;;;1.55;0.88;;;;;;;13.24;100.00;101509.56;4911414;29;20048;-76
2022/03/23 07:05:13;;;;;;;1.20;0.85;;;;;;;13.20;100.00;101512.06;4913403;28;20056;-75
2022/03/23 07:09:31;;;;;;;1.42;1.00;;;;;;;13.18;100.00;101510.25;4913095;29;20490;-74
2022/03/23 07:10:34;;;;;;;1.30;0.70;;;;;;;13.15;100.00;101498.06;4911908;29;20067;-76
2022/03/23 07:13:03;;;;;;;7.63;1.65;;;;;;;13.12;100.00;101491.88;4924846;29;20110;-76
2022/03/23 07:15:31;;;;;;;2.25;1.35;;;;;;;13.05;100.00;101485.59;4897650;29;20517;-75
2022/03/23 07:18:00;;;;;;;1.20;0.85;;;;;;;13.00;100.00;101487.19;4911645;29;20103;-75
2022/03/23 07:20:28;;;;;;;1.00;0.80;;;;;;;12.96;100.00;101490.50;4911384;29;20082;-76
2022/03/23 07:22:57;;;;;;;1.63;0.98;;;;;;;12.94;100.00;101477.50;4898307;29;20505;-75
2022/03/23 07:25:25;;;;;;;1.70;0.90;;;;;;;12.92;100.00;101488.69;4911213;29;20083;-75
2022/03/23 07:27:55;;;;;;;3.13;0.95;;;;;;;12.91;100.00;101494.69;4911134;29;20055;-75
2022/03/23 07:30:26;;;;;;;2.40;0.80;;;;;;;12.89;100.00;101498.94;4911038;29;20515;-75
2022/03/23 07:32:55;;;;;;;1.13;0.65;;;;;;;12.87;100.00;101496.28;4911912;29;20087;-75
2022/03/23 07:35:24;;;;;;;5.43;1.08;;;;;;;12.87;100.00;101511.88;4910929;29;20052;-75
2022/03/23 07:37:52;;;;;;;2.30;0.90;;;;;;;12.85;100.00;101507.47;4911254;29;20100;-76
2022/03/23 07:40:21;;;;;;;3.95;1.00;;;;;;;12.82;100.00;101507.38;4911479;29;20088;-75
2022/03/23 07:42:49;;;;;;;1.15;0.70;;;;;;;12.76;100.00;101503.75;4910828;29;20100;-76
2022/03/23 07:45:19;;;;;;;1.60;0.90;;;;;;;12.69;100.00;101509.59;4910973;29;20060;-75
2022/03/23 07:47:48;;;;;;;2.17;0.80;;;;;;;12.65;100.00;101506.84;4911232;29;20530;-75
2022/03/23 07:50:16;;;;;;;1.05;0.77;;;;;;;12.58;100.00;101497.97;4910070;29;20075;-75
2022/03/23 07:52:45;;;;;;;3.10;1.20;;;;;;;12.51;100.00;101506.38;4910655;29;20055;-76
2022/03/23 07:55:13;;;;;;;1.17;0.68;;;;;;;12.48;100.00;101506.25;4911229;29;20485;-75
2022/03/23 07:57:41;;;;;;;3.03;0.98;;;;;;;12.45;100.00;101501.84;4910222;29;20514;-75
2022/03/23 08:00:11;;;;;;;2.85;0.85;;;;;;;12.42;100.00;101506.06;4911445;29;20124;-75
2022/03/23 08:02:42;;;;;;;3.40;0.75;;;;;;;12.38;100.00;101501.59;4926709;29;20082;-75
2022/03/23 08:05:11;;;;;;;2.83;0.95;;;;;;;12.35;100.00;101494.59;4912133;28;20413;-75
2022/03/23 08:07:40;;;;;;;2.08;1.08;;;;;;;12.31;100.00;101491.00;4911392;29;20060;-74
2022/03/23 08:10:09;;;;;;;1.48;0.70;;;;;;;12.25;100.00;101492.50;4910713;29;20688;-74
2022/03/23 08:12:37;;;;;;;1.20;0.82;;;;;;;12.19;100.00;101482.81;4920933;29;20094;-75
2022/03/23 08:15:07;;;;;;;1.80;0.70;;;;;;;12.14;100.00;101474.00;4929188;29;20044;-75
2022/03/23 08:17:38;;;;;;;1.92;0.70;;;;;;;12.08;100.00;101468.59;4914266;29;20056;-75
2022/03/23 08:22:57;;;;;;;1.85;0.85;;;;;;;12.04;100.00;101477.06;4927285;29;20059;-75
2022/03/23 08:25:26;;;;;;;1.08;0.70;;;;;;;12.07;100.00;101472.91;4914334;29;20108;-75
2022/03/23 08:27:56;;;;;;;4.10;0.73;;;;;;;12.08;100.00;101472.06;4914454;29;20156;-75
2022/03/23 08:30:24;;;;;;;1.63;0.88;;;;;;;12.06;100.00;101462.47;4914217;29;20155;-75
2022/03/23 08:32:53;;;;;;;2.13;0.65;;;;;;;12.03;100.00;101462.34;4913912;29;20104;-75
2022/03/23 08:35:24;;;;;;;3.63;0.95;;;;;;;11.97;100.00;101477.69;4914395;29;20111;-75
2022/03/23 08:37:52;;;;;;;2.22;0.88;;;;;;;11.93;100.00;101474.09;4913830;29;20098;-75
2022/03/23 08:40:21;;;;;;;1.85;0.70;;;;;;;11.92;100.00;101475.81;4913595;29;20056;-74
2022/03/23 08:42:50;;;;;;;2.28;0.70;;;;;;;11.94;100.00;101481.06;4914258;29;20056;-75
2022/03/23 08:45:19;;;;;;;2.42;1.00;;;;;;;11.94;100.00;101475.88;4913879;29;20850;-75
2022/03/23 08:47:49;;;;;;;1.35;0.80;;;;;;;11.93;100.00;101484.47;4914147;29;20092;-74
2022/03/23 08:50:18;;;;;;;1.42;0.80;;;;;;;11.89;100.00;101483.50;4912943;29;20056;-75
2022/03/23 08:52:48;;;;;;;1.45;0.70;;;;;;;11.86;100.00;101483.34;4912652;29;20144;-75
2022/03/23 08:55:19;;;;;;;1.35;0.90;;;;;;;11.84;100.00;101497.97;4914237;29;20085;-75
2022/03/23 08:57:48;;;;;;;4.22;0.93;;;;;;;11.80;100.00;101506.47;4915859;29;20058;-74
2022/03/23 09:00:18;;;;;;;1.67;0.75;;;;;;;11.78;100.00;101502.94;4916323;29;20124;-75
2022/03/23 09:02:46;;;;;;;2.55;0.70;;;;;;;11.76;100.00;101507.19;4913084;29;20608;-73
2022/03/23 09:05:16;;;;;;;1.52;0.82;;;;;;;11.77;100.00;101498.56;4912927;28;20136;-75
2022/03/23 09:07:44;;;;;;;3.08;0.70;;;;;;;11.67;100.00;101492.16;4914106;29;20052;-75
2022/03/23 09:10:16;;;;;;;0.75;0.65;;;;;;;11.66;100.00;101499.88;4914029;29;20546;-75
2022/03/23 09:12:45;;;;;;;3.38;0.50;;;;;;;11.61;100.00;101506.59;4917896;29;20594;-76
2022/03/23 09:15:15;;;;;;;0.55;0.50;;;;;;;11.50;100.00;101496.72;4927122;29;20048;-76
2022/03/23 09:17:44;;;;;;;1.40;0.80;;;;;;;11.38;100.00;101496.25;4915500;29;20087;-76
2022/03/23 09:20:13;;;;;;;1.10;0.75;;;;;;;11.30;100.00;101500.28;4914371;29;20545;-76
2022/03/23 09:22:44;;;;;;;1.67;1.00;;;;;;;11.29;100.00;101501.09;4912672;29;20148;-76
2022/03/23 09:25:15;;;;;;;1.48;0.82;;;;;;;11.30;100.00;101510.63;4913152;29;20075;-76
2022/03/23 09:27:45;;;;;;;3.67;0.98;;;;;;;11.33;100.00;101518.53;4911969;29;20048;-76
2022/03/23 09:30:15;;;;;;;1.77;0.70;;;;;;;11.33;100.00;101505.56;4928875;29;20048;-76
2022/03/23 09:32:46;;;;;;;1.38;0.77;;;;;;;11.33;100.00;101502.97;4921118;29;20155;-75
2022/03/23 09:35:15;;;;;;;2.28;0.82;;;;;;;11.29;100.00;101501.09;4912870;29;20135;-76
2022/03/23 09:37:50;;;;;;;2.90;0.90;;;;;;;11.28;100.00;101496.75;4919813;29;20079;-75
2022/03/23 09:40:24;;;;;;;5.13;1.23;;;;;;;11.25;100.00;101505.28;4912380;29;20152;-75
2022/03/23 09:42:56;;;;;;;4.97;0.93;;;;;;;11.24;100.00;101500.91;4899150;29;20359;-76
2022/03/23 09:48:09;;;;;;;2.80;0.50;;;;;;;11.17;100.00;101498.91;4923241;29;20052;-74
2022/03/23 09:50:40;;;;;;;6.72;0.63;;;;;;;11.18;100.00;101505.88;4915109;29;20059;-75
2022/03/23 09:53:09;;;;;;;1.17;0.82;;;;;;;11.18;100.00;101505.88;4912509;29;20121;-75
2022/03/23 09:55:41;;;;;;;4.68;1.00;;;;;;;11.17;100.00;101504.09;4915716;29;20103;-75
2022/03/23 09:58:10;;;;;;;1.48;0.88;;;;;;;11.17;100.00;101508.38;4913159;29;20048;-75
2022/03/23 10:04:07;;;;;;;3.28;0.75;;;;;;;11.13;100.00;101509.09;5045440;23;20082;-84
2022/03/23 10:07:01;;;;;;;2.10;0.80;;;;;;;11.06;100.00;101500.19;4934713;29;20182;-82
2022/03/23 10:10:07;;;;;;;1.13;0.70;;;;;;;10.95;100.00;101496.28;4931960;29;20079;-83
2022/03/23 10:13:12;;;;;;;7.63;0.80;;;;;;;10.81;100.00;101498.31;4903480;29;20048;-83
2022/03/23 10:16:13;;;;;;;2.63;0.90;;;;;;;10.64;100.00;101490.75;4930670;29;20130;-83
2022/03/23 10:18:57;;;;;;;0.88;0.63;;;;;;;10.57;100.00;101498.22;4933550;29;20111;-82
2022/03/23 10:21:28;;;;;;;3.35;1.55;;;;;;;10.52;100.00;101498.03;4937058;29;20047;-82
2022/03/23 10:24:30;;;;;;;4.18;1.80;;;;;;;10.49;100.00;101497.91;4949881;29;20130;-81
2022/03/23 10:26:59;;;;;;;2.58;1.52;;;;;;;10.50;100.00;101494.50;4949125;28;20169;-82
2022/03/23 10:29:30;;;;;;;3.38;1.10;;;;;;;10.49;100.00;101495.34;4950001;29;20054;-83
2022/03/23 10:32:08;;;;;;;4.82;1.30;;;;;;;10.43;100.00;101492.47;4949901;29;20489;-82
2022/03/23 10:34:47;;;;;;;7.28;1.55;;;;;;;10.38;100.00;101497.47;4949113;29;20078;-83
2022/03/23 10:37:17;;;;;;;2.58;1.42;;;;;;;10.36;100.00;101493.03;4950128;28;20055;-81
2022/03/23 10:39:49;;;;;;;7.53;1.75;;;;;;;10.38;100.00;101492.28;4947168;29;20046;-82
2022/03/23 10:42:19;;;;;;;4.22;1.48;;;;;;;10.42;100.00;101504.53;4939439;29;20454;-83
2022/03/23 10:44:48;;;;;;;1.60;1.00;;;;;;;10.37;100.00;101499.97;4951723;28;20081;-81
2022/03/23 10:47:31;;;;;;;1.90;0.90;;;;;;;10.45;100.00;101503.78;4954532;29;20082;-81
2022/03/23 10:50:08;;;;;;;2.40;0.88;;;;;;;10.49;100.00;101508.28;4944486;29;20054;-82
2022/03/23 10:52:37;;;;;;;1.75;0.90;;;;;;;10.52;100.00;101510.09;4952037;29;20172;-81
2022/03/23 10:55:10;;;;;;;3.38;1.08;;;;;;;10.54;100.00;101514.50;4939751;29;20155;-82
2022/03/23 10:58:07;;;;;;;1.60;0.80;;;;;;;10.57;100.00;101514.63;4931618;29;20141;-82
2022/03/23 11:00:39;;;;;;;1.48;0.90;;;;;;;10.57;100.00;101504.28;4942984;29;20147;-82
2022/03/23 11:03:10;;;;;;;3.10;1.60;;;;;;;10.61;100.00;101506.19;4932385;28;20533;-82
2022/03/23 11:05:42;;;;;;;6.03;1.58;;;;;;;10.63;100.00;101509.72;4933052;29;20056;-82
2022/03/23 11:08:12;;;;;;;3.70;1.33;;;;;;;10.65;100.00;101508.06;4934434;29;20105;-83
2022/03/23 11:16:17;;;;;;;2.35;1.23;;;;;;;10.72;100.00;101501.44;4933783;29;20122;-82
2022/03/23 11:18:46;;;;;;;4.30;1.45;;;;;;;10.78;100.00;101508.56;4934006;29;20052;-82
2022/03/23 11:21:17;;;;;;;3.10;1.27;;;;;;;10.74;100.00;101501.50;4920303;29;20143;-82
2022/03/23 11:23:45;;;;;;;1.88;1.20;;;;;;;10.76;100.00;101515.38;4939740;29;20048;-83
2022/03/23 11:26:14;;;;;;;3.50;1.10;;;;;;;10.78;100.00;101522.38;4942336;29;20047;-83
2022/03/23 11:28:44;;;;;;;5.22;1.30;;;;;;;10.80;100.00;101527.63;4951125;29;20058;-83
2022/03/23 11:31:15;;;;;;;2.70;1.35;;;;;;;10.81;100.00;101524.22;4945274;29;20052;-82
2022/03/23 11:33:50;;;;;;;2.83;1.10;;;;;;;10.86;100.00;101536.53;4939989;29;20102;-83
2022/03/23 11:36:22;;;;;;;4.05;1.63;;;;;;;10.89;100.00;101541.84;4941351;29;20807;-84
2022/03/23 11:38:52;;;;;;;3.55;1.58;;;;;;;10.91;100.00;101534.13;4941913;29;20111;-83
2022/03/23 11:41:21;;;;;;;2.10;1.50;;;;;;;10.95;100.00;101538.63;4944868;29;20091;-82
2022/03/23 11:43:50;;;;;;;2.58;1.55;;;;;;;10.97;100.00;101542.16;4946811;29;20106;-82
2022/03/23 11:46:23;;;;;;;2.80;1.50;;;;;;;11.01;100.00;101537.97;4941556;29;20108;-80
2022/03/23 11:49:12;;;;;;;3.95;2.05;;;;;;;11.04;100.00;101541.59;4942375;29;20489;-83
2022/03/23 11:52:24;;;;;;;7.93;1.65;;;;;;;11.07;100.00;101544.28;4942369;29;20054;-83
2022/03/23 11:58:10;;;;;;;4.65;1.45;;;;;;;11.04;100.00;101544.19;4944593;29;20667;-82
2022/03/23 12:00:41;;;;;;;;;;;;;;;11.07;100.00;101544.28;4926734;29;20474;-83
2022/03/23 12:03:11;;;;;;;2.47;1.60;;;;;;;11.15;100.00;101543.69;4937790;28;19931;-82
2022/03/23 12:05:52;;;;;;;2.95;1.33;;;;;;;11.20;100.00;101547.34;4952308;29;20118;-81